createdAt,value
2023-03-23T16:00:06.054Z,1.48
2023-03-23T16:02:57.560Z,1.55
2023-03-23T16:05:44.978Z,1.35
2023-03-23T16:08:32.085Z,1.92
2023-03-23T16:11:19.640Z,1.63
2023-03-23T16:14:07.812Z,1.33
2023-03-23T16:16:54.501Z,1.25
2023-03-23T16:19:42.154Z,1.52
2023-03-23T16:22:28.827Z,1.60
2023-03-23T16:25:18.736Z,1.75
2023-03-23T16:28:06.082Z,1.27
2023-03-23T16:30:53.038Z,1.67
2023-03-23T16:33:41.450Z,2.13
2023-03-23T16:36:28.122Z,1.67
2023-03-23T16:39:18.849Z,1.80
2023-03-23T16:42:06.614Z,1.52
2023-03-23T16:44:54.858Z,1.40
2023-03-23T16:47:42.351Z,1.48
2023-03-23T16:50:30.371Z,1.65
2023-03-23T16:53:17.049Z,1.60
2023-03-23T16:56:04.760Z,1.60
2023-03-23T16:58:51.472Z,1.30
2023-03-23T17:01:38.307Z,1.60
2023-03-23T17:04:26.018Z,2.28
2023-03-23T17:07:14.743Z,1.92
2023-03-23T17:10:01.814Z,1.65
2023-03-23T17:12:48.982Z,1.65
2023-03-23T17:15:40.442Z,1.35
2023-03-23T17:18:29.002Z,1.60
2023-03-23T17:21:15.976Z,1.13
2023-03-23T17:24:03.345Z,1.45
2023-03-23T17:29:37.004Z,1.40
2023-03-23T17:32:25.486Z,1.50
2023-03-23T17:35:12.175Z,1.60
2023-03-23T17:37:59.395Z,1.80
2023-03-23T17:40:47.301Z,2.03
2023-03-23T17:43:36.352Z,1.45
2023-03-23T17:46:23.264Z,1.60
2023-03-23T17:49:10.436Z,1.40
2023-03-23T17:52:01.205Z,2.13
2023-03-23T17:54:48.452Z,1.52
2023-03-23T17:57:35.409Z,1.70
2023-03-23T18:00:22.289Z,1.70
2023-03-23T18:03:09.665Z,1.83
2023-03-23T18:08:47.256Z,2.78
2023-03-23T18:11:34.087Z,2.10
2023-03-23T18:14:21.745Z,2.17
2023-03-23T18:17:08.561Z,2.35
2023-03-23T18:19:55.358Z,2.65
2023-03-23T18:22:43.024Z,2.47
2023-03-23T18:25:30.103Z,3.90
2023-03-23T18:28:17.935Z,3.42
2023-03-23T18:31:16.022Z,3.33
2023-03-23T18:34:02.705Z,3.60
2023-03-23T18:36:49.741Z,2.95
2023-03-23T18:39:38.995Z,2.50
2023-03-23T18:42:27.722Z,2.17
2023-03-23T18:45:14.756Z,1.90
2023-03-23T18:48:04.803Z,2.20
2023-03-23T18:50:54.153Z,2.78
2023-03-23T18:53:41.696Z,2.20
2023-03-23T18:56:28.436Z,1.98
2023-03-23T18:59:15.578Z,2.20
2023-03-23T19:02:03.288Z,2.10
2023-03-23T19:04:53.782Z,1.75
2023-03-23T19:07:41.060Z,2.35
2023-03-23T19:13:12.444Z,2.22
2023-03-23T19:15:57.580Z,2.50
2023-03-23T19:18:42.829Z,2.75
2023-03-23T19:21:32.043Z,2.40
2023-03-23T19:24:17.620Z,2.60
2023-03-23T19:27:02.960Z,2.40
2023-03-23T19:29:48.660Z,2.70
2023-03-23T19:32:33.779Z,2.70
2023-03-23T19:35:18.748Z,3.00
2023-03-23T19:38:05.206Z,2.58
2023-03-23T19:40:57.629Z,2.80
2023-03-23T19:43:43.197Z,2.60
2023-03-23T19:46:30.881Z,3.30
2023-03-23T19:49:16.860Z,2.97
2023-03-23T19:52:08.810Z,2.88
2023-03-23T19:54:58.330Z,3.03
2023-03-23T19:57:50.875Z,3.20
2023-03-23T20:00:37.094Z,3.10
2023-03-23T20:03:23.080Z,2.90
2023-03-23T20:06:15.631Z,3.20
2023-03-23T20:09:07.400Z,3.20
2023-03-23T20:11:53.685Z,3.03
2023-03-23T20:14:45.313Z,2.92
2023-03-23T20:17:30.863Z,3.17
2023-03-23T20:20:16.972Z,3.30
2023-03-23T20:23:04.399Z,3.22
2023-03-23T20:25:51.562Z,3.25
2023-03-23T20:28:37.447Z,2.85
2023-03-23T20:34:46.466Z,3.15
2023-03-23T20:37:53.944Z,2.90
2023-03-23T20:40:42.737Z,2.72
2023-03-23T20:43:32.424Z,2.92
2023-03-23T20:46:19.798Z,3.10
2023-03-23T20:51:52.356Z,2.58
2023-03-23T20:54:38.955Z,2.83
2023-03-23T20:57:24.992Z,2.65
2023-03-23T21:00:16.114Z,2.63
2023-03-23T21:03:04.210Z,2.70
2023-03-23T21:05:49.553Z,2.80
2023-03-23T21:08:37.681Z,3.05
2023-03-23T21:11:25.656Z,2.80
2023-03-23T21:17:01.455Z,3.03
2023-03-23T21:19:53.175Z,2.97
2023-03-23T21:22:40.208Z,2.63
2023-03-23T21:25:34.024Z,3.08
2023-03-23T21:28:22.093Z,3.28
2023-03-23T21:31:07.770Z,2.65
2023-03-23T21:34:00.524Z,3.00
2023-03-23T21:36:47.828Z,2.88
2023-03-23T21:39:33.561Z,3.10
2023-03-23T21:42:32.226Z,3.55
2023-03-23T21:45:25.658Z,3.25
2023-03-23T21:48:13.574Z,3.47
2023-03-23T21:51:08.466Z,2.95
2023-03-23T21:53:56.057Z,3.40
2023-03-23T21:59:43.386Z,3.08
2023-03-23T22:02:31.618Z,2.97
2023-03-23T22:05:18.648Z,3.38
2023-03-23T22:08:04.663Z,3.65
2023-03-23T22:11:01.226Z,3.28
2023-03-23T22:13:48.787Z,3.20
2023-03-23T22:16:35.590Z,3.40
2023-03-23T22:19:41.434Z,2.88
2023-03-23T22:25:14.644Z,2.47
2023-03-23T22:28:03.450Z,3.00
2023-03-23T22:30:48.752Z,2.72
2023-03-23T22:33:35.560Z,2.88
2023-03-23T22:36:22.401Z,2.63
2023-03-23T22:39:08.839Z,2.70
2023-03-23T22:41:53.721Z,3.20
2023-03-23T22:44:38.821Z,2.15
2023-03-23T22:47:24.101Z,2.60
2023-03-23T22:50:11.282Z,2.63
2023-03-23T22:55:43.735Z,2.47
2023-03-23T22:58:29.327Z,2.60
2023-03-23T23:01:18.950Z,2.67
2023-03-23T23:04:05.194Z,2.20
2023-03-23T23:06:55.376Z,2.17
2023-03-23T23:09:46.110Z,2.50
2023-03-23T23:12:35.945Z,2.28
2023-03-23T23:15:22.459Z,2.40
2023-03-23T23:18:12.841Z,2.80
2023-03-23T23:21:09.604Z,2.72
2023-03-23T23:23:55.931Z,2.15
2023-03-23T23:26:42.225Z,2.33
2023-03-23T23:29:28.769Z,2.38
2023-03-23T23:32:17.603Z,2.20
2023-03-23T23:35:06.776Z,2.17
2023-03-23T23:37:51.855Z,2.40
2023-03-23T23:40:36.977Z,2.45
2023-03-23T23:43:24.028Z,2.33
2023-03-23T23:46:10.165Z,2.00
2023-03-23T23:48:55.787Z,2.10
2023-03-23T23:51:41.201Z,2.30
2023-03-23T23:54:30.257Z,2.40
2023-03-23T23:57:17.005Z,1.98
